Time;durP1;ratioP1;P1;durP2;ratioP2;P2;SDS_P1;SDS_P2;PMS_P1;PMS_P2;Temp;Humidity;BMP_temperature;BMP_pressure;BME280_temperature;BME280_humidity;BME280_pressure;Samples;Min_cycle;Max_cycle;Signal;HPM_P1;HPM_P2
2022/04/29 00:02:16;;;;;;;18.25;6.95;;;;;;;3.86;100.00;102902.94;5000220;28;20403;-78
2022/04/29 00:04:42;;;;;;;16.88;7.13;;;;;;;3.76;100.00;102897.19;5004599;28;20049;-76
2022/04/29 00:07:10;;;;;;;19.33;6.95;;;;;;;3.72;100.00;102897.38;4992610;28;20030;-78
2022/04/29 00:09:36;;;;;;;20.70;7.68;;;;;;;3.73;100.00;102899.03;5000751;28;20066;-78
2022/04/29 00:12:04;;;;;;;18.13;7.82;;;;;;;3.67;100.00;102890.56;5005284;28;20034;-77
2022/04/29 00:14:31;;;;;;;17.77;7.75;;;;;;;3.64;100.00;102884.63;5006472;28;20076;-78
2022/04/29 00:16:57;;;;;;;16.75;6.95;;;;;;;3.65;100.00;102894.94;4991314;28;20081;-76
2022/04/29 00:19:23;;;;;;;20.13;7.75;;;;;;;3.66;100.00;102896.66;4967879;28;20196;-76
2022/04/29 00:21:49;;;;;;;17.90;7.07;;;;;;;3.59;100.00;102883.91;4990883;28;20570;-76
2022/04/29 00:24:16;;;;;;;20.77;7.53;;;;;;;3.55;100.00;102901.34;4982644;28;20088;-78
2022/04/29 00:26:42;;;;;;;17.90;7.57;;;;;;;3.50;100.00;102895.44;4985196;28;20030;-77
2022/04/29 00:29:08;;;;;;;21.88;8.15;;;;;;;3.48;100.00;102895.50;4990581;28;20064;-78
2022/04/29 00:31:35;;;;;;;21.73;8.25;;;;;;;3.55;100.00;102887.53;4992775;28;20093;-78
2022/04/29 00:34:01;;;;;;;18.17;7.35;;;;;;;3.47;100.00;102891.19;4993698;28;20042;-79
2022/04/29 00:36:27;;;;;;;25.75;9.35;;;;;;;3.44;100.00;102886.09;5020895;28;20118;-78
2022/04/29 00:38:56;;;;;;;23.85;9.40;;;;;;;3.52;100.00;102885.84;4991770;28;20041;-78
2022/04/29 00:41:23;;;;;;;19.90;7.90;;;;;;;3.48;100.00;102885.13;5012373;28;20042;-77
2022/04/29 00:43:59;;;;;;;15.55;8.52;;;;;;;3.43;100.00;102883.56;4990397;28;20531;-78
2022/04/29 00:46:25;;;;;;;24.75;8.98;;;;;;;3.46;100.00;102892.06;4989448;28;20050;-78
2022/04/29 00:48:51;;;;;;;19.10;8.70;;;;;;;3.47;100.00;102898.97;4990008;28;20125;-78
2022/04/29 00:51:16;;;;;;;19.30;8.38;;;;;;;3.43;100.00;102881.81;4976526;28;20048;-76
2022/04/29 00:53:43;;;;;;;22.45;9.93;;;;;;;3.54;100.00;102868.47;4990666;28;20099;-76
2022/04/29 00:56:10;;;;;;;22.63;9.75;;;;;;;3.54;100.00;102876.25;4973292;28;20037;-77
2022/04/29 00:58:44;;;;;;;19.92;8.50;;;;;;;3.51;100.00;102866.00;4998274;28;20034;-78
2022/04/29 01:01:11;;;;;;;21.50;9.38;;;;;;;3.55;100.00;102877.13;4984711;28;20453;-75
2022/04/29 01:03:38;;;;;;;22.45;9.40;;;;;;;3.51;100.00;102873.78;4997503;28;20037;-74
2022/04/29 01:06:04;;;;;;;21.45;9.35;;;;;;;3.43;100.00;102866.25;4991140;28;20041;-78
2022/04/29 01:08:30;;;;;;;21.27;10.45;;;;;;;3.67;100.00;102874.13;5005340;28;20029;-78
2022/04/29 01:10:56;;;;;;;21.63;10.13;;;;;;;3.63;100.00;102870.78;4991618;28;20046;-79
2022/04/29 01:13:22;;;;;;;21.83;9.27;;;;;;;3.58;100.00;102870.09;4991558;28;20048;-78
2022/04/29 01:15:51;;;;;;;19.38;8.93;;;;;;;3.51;100.00;102869.44;4981054;28;20059;-79
2022/04/29 01:18:19;;;;;;;19.40;9.77;;;;;;;3.50;100.00;102874.66;4991601;28;20044;-78
2022/04/29 01:20:45;;;;;;;24.55;10.88;;;;;;;3.57;100.00;102852.81;5005411;28;20399;-78
2022/04/29 01:23:12;;;;;;;24.30;9.70;;;;;;;3.49;100.00;102868.63;4989315;28;20045;-81
2022/04/29 01:25:39;;;;;;;22.50;9.23;;;;;;;3.36;100.00;102863.91;4982730;28;20070;-77
2022/04/29 01:28:05;;;;;;;21.60;9.10;;;;;;;3.26;100.00;102861.56;4982723;28;20056;-76
2022/04/29 01:30:33;;;;;;;22.88;9.82;;;;;;;3.35;100.00;102869.97;4988467;28;20807;-75
2022/04/29 01:33:00;;;;;;;26.35;10.00;;;;;;;3.23;100.00;102859.06;4972045;28;20037;-77
2022/04/29 01:35:26;;;;;;;25.40;10.75;;;;;;;3.33;100.00;102858.78;4983872;28;20107;-77
2022/04/29 01:37:52;;;;;;;26.08;10.27;;;;;;;3.36;100.00;102856.13;4998606;28;20729;-76
2022/04/29 01:40:18;;;;;;;21.02;11.05;;;;;;;3.48;100.00;102859.19;4995505;28;20050;-79
2022/04/29 01:42:44;;;;;;;22.60;10.23;;;;;;;3.46;100.00;102863.53;4985539;28;20145;-78
2022/04/29 01:45:10;;;;;;;20.23;10.50;;;;;;;3.51;100.00;102860.81;4988649;28;20566;-77
2022/04/29 01:47:50;;;;;;;27.00;11.57;;;;;;;3.47;100.00;102854.88;4991431;28;20436;-79
2022/04/29 01:50:41;;;;;;;19.10;10.90;;;;;;;3.40;100.00;102845.56;4990335;28;20042;-77
2022/04/29 01:53:07;;;;;;;22.85;10.90;;;;;;;3.47;100.00;102856.63;5003162;28;20041;-77
2022/04/29 01:55:33;;;;;;;27.13;10.45;;;;;;;3.47;100.00;102857.47;4973528;28;20414;-77
2022/04/29 01:57:58;;;;;;;19.05;10.73;;;;;;;3.37;100.00;102860.38;4983837;28;20180;-76
2022/04/29 02:00:24;;;;;;;27.63;11.90;;;;;;;3.34;100.00;102857.91;4990231;28;20052;-76
2022/04/29 02:02:50;;;;;;;20.77;10.88;;;;;;;3.31;100.00;102862.28;5004542;28;20446;-78
2022/04/29 02:05:18;;;;;;;27.65;11.68;;;;;;;3.28;100.00;102854.59;5006379;28;20105;-78
2022/04/29 02:07:45;;;;;;;24.08;11.55;;;;;;;3.27;100.00;102859.81;5006036;28;20166;-77
2022/04/29 02:10:13;;;;;;;25.75;10.63;;;;;;;3.27;100.00;102857.22;5001903;28;20088;-77
2022/04/29 02:12:39;;;;;;;21.83;10.07;;;;;;;3.23;100.00;102853.88;5012998;28;20045;-77
2022/04/29 02:15:24;;;;;;;18.98;9.93;;;;;;;3.27;100.00;102845.09;5033945;28;20042;-79
2022/04/29 02:17:50;;;;;;;23.65;11.10;;;;;;;3.35;100.00;102849.22;5015672;28;20424;-79
2022/04/29 02:20:17;;;;;;;23.40;11.07;;;;;;;3.31;100.00;102830.28;4994849;28;20056;-79
2022/04/29 02:22:43;;;;;;;27.85;11.45;;;;;;;3.35;100.00;102851.81;5005013;28;20052;-79
2022/04/29 02:25:09;;;;;;;29.80;12.50;;;;;;;3.37;100.00;102837.91;4982012;28;20092;-77
2022/04/29 02:27:36;;;;;;;26.35;11.63;;;;;;;3.54;100.00;102845.13;4990323;28;20125;-76
2022/04/29 02:30:04;;;;;;;24.33;11.30;;;;;;;3.48;100.00;102840.13;4990625;28;20035;-79
2022/04/29 02:32:31;;;;;;;30.08;12.20;;;;;;;3.48;100.00;102841.00;4973348;28;20060;-79
2022/04/29 02:34:58;;;;;;;20.77;11.50;;;;;;;3.47;100.00;102847.09;5002368;28;20057;-78
2022/04/29 02:37:24;;;;;;;22.13;10.48;;;;;;;3.38;100.00;102838.75;5007338;28;20042;-79
2022/04/29 02:39:50;;;;;;;20.83;10.75;;;;;;;3.29;100.00;102840.72;5015223;28;20492;-78
2022/04/29 02:42:16;;;;;;;21.35;10.95;;;;;;;3.20;100.00;102841.03;4990592;28;20030;-78
2022/04/29 02:44:43;;;;;;;20.42;11.25;;;;;;;3.24;100.00;102839.16;5000790;28;20042;-78
2022/04/29 02:47:10;;;;;;;25.30;12.10;;;;;;;3.36;100.00;102845.72;5015281;28;20030;-78
2022/04/29 02:49:44;;;;;;;23.73;11.27;;;;;;;3.32;100.00;102844.97;4988889;28;20109;-78
2022/04/29 02:52:11;;;;;;;24.27;11.77;;;;;;;3.35;100.00;102839.69;4984134;28;20571;-79
2022/04/29 02:54:37;;;;;;;34.83;12.93;;;;;;;3.42;100.00;102846.38;4972992;28;20062;-78
2022/04/29 02:57:07;;;;;;;24.17;11.85;;;;;;;3.45;100.00;102850.63;4987249;28;20048;-78
2022/04/29 02:59:40;;;;;;;19.83;11.40;;;;;;;3.37;100.00;102852.59;5036693;28;20042;-76
2022/04/29 03:02:06;;;;;;;28.45;12.98;;;;;;;3.36;100.00;102846.56;4990169;28;20036;-76
2022/04/29 03:04:33;;;;;;;22.42;12.82;;;;;;;3.35;100.00;102850.06;5005986;28;20037;-75
2022/04/29 03:07:00;;;;;;;27.05;12.93;;;;;;;3.19;100.00;102830.69;4989436;28;20419;-77
2022/04/29 03:09:26;;;;;;;28.85;12.07;;;;;;;3.34;100.00;102834.56;4989487;28;20107;-77
2022/04/29 03:11:52;;;;;;;26.88;12.63;;;;;;;3.35;100.00;102825.88;4989291;28;20180;-76
2022/04/29 03:14:18;;;;;;;25.05;11.68;;;;;;;3.33;100.00;102823.31;5002604;28;20487;-77
2022/04/29 03:16:44;;;;;;;26.38;12.38;;;;;;;3.39;100.00;102827.47;5000170;28;20522;-76
2022/04/29 03:19:10;;;;;;;25.90;12.60;;;;;;;3.31;100.00;102809.53;4985724;28;20156;-77
2022/04/29 03:21:37;;;;;;;25.08;13.15;;;;;;;3.35;100.00;102831.06;5004890;28;20412;-76
2022/04/29 03:24:04;;;;;;;24.42;12.02;;;;;;;3.26;100.00;102819.25;4988009;28;20026;-74
2022/04/29 03:26:31;;;;;;;22.30;12.60;;;;;;;3.25;100.00;102820.97;5016748;28;20057;-76
2022/04/29 03:28:58;;;;;;;29.63;12.45;;;;;;;3.25;100.00;102822.72;4990771;28;20026;-75
2022/04/29 03:31:24;;;;;;;28.35;11.60;;;;;;;3.27;100.00;102826.09;5005076;28;20395;-77
2022/04/29 03:34:10;;;;;;;24.75;12.82;;;;;;;3.24;100.00;102800.25;4992922;28;20042;-76
2022/04/29 03:36:36;;;;;;;27.45;12.88;;;;;;;3.22;100.00;102809.84;5007341;28;20041;-78
2022/04/29 03:39:03;;;;;;;24.52;12.43;;;;;;;3.31;100.00;102817.31;5032263;28;20045;-77
2022/04/29 03:41:30;;;;;;;24.15;12.10;;;;;;;3.25;100.00;102809.75;5005355;28;20061;-77
2022/04/29 03:43:57;;;;;;;26.52;12.38;;;;;;;3.22;100.00;102809.84;4991198;28;20026;-77
2022/04/29 03:46:29;;;;;;;26.63;11.50;;;;;;;3.26;100.00;102819.25;4999469;28;20403;-77
2022/04/29 03:49:35;;;;;;;23.65;13.02;;;;;;;3.32;100.00;102816.44;4995660;28;20080;-77
2022/04/29 03:52:19;;;;;;;28.50;14.00;;;;;;;3.26;100.00;102809.72;4986990;28;20145;-77
2022/04/29 03:54:45;;;;;;;21.58;12.48;;;;;;;3.38;100.00;102811.06;5018710;28;20141;-76
2022/04/29 03:57:11;;;;;;;22.70;13.48;;;;;;;3.44;100.00;102812.59;5001751;28;20033;-77
2022/04/29 03:59:37;;;;;;;20.45;12.50;;;;;;;3.38;100.00;102823.19;5001507;28;20034;-79
2022/04/29 04:02:05;;;;;;;26.58;12.45;;;;;;;3.38;100.00;102818.84;4992435;28;20064;-77
2022/04/29 04:04:31;;;;;;;26.67;12.57;;;;;;;3.30;100.00;102811.31;4993534;28;20121;-78
2022/04/29 04:07:02;;;;;;;22.38;12.25;;;;;;;3.30;100.00;102811.31;4980538;28;20088;-79
2022/04/29 04:09:52;;;;;;;23.83;12.63;;;;;;;3.34;100.00;102812.06;4996225;28;20084;-77
2022/04/29 04:12:18;;;;;;;23.30;11.95;;;;;;;3.31;100.00;102812.13;5004669;28;20033;-75
2022/04/29 04:15:02;;;;;;;18.77;11.32;;;;;;;3.40;100.00;102803.22;4983517;28;20034;-78
2022/04/29 04:17:34;;;;;;;20.08;12.68;;;;;;;3.34;100.00;102806.03;5001987;28;20065;-77
2022/04/29 04:20:00;;;;;;;24.98;12.23;;;;;;;3.35;100.00;102808.53;4992030;28;20462;-76
2022/04/29 04:22:29;;;;;;;25.92;12.38;;;;;;;3.36;100.00;102817.19;4991704;28;20491;-78
2022/04/29 04:24:58;;;;;;;21.88;11.82;;;;;;;3.37;100.00;102814.56;5012310;28;20021;-78
2022/04/29 04:27:24;;;;;;;31.08;12.93;;;;;;;3.37;100.00;102819.75;5010564;28;20034;-77
2022/04/29 04:29:49;;;;;;;26.30;12.23;;;;;;;3.31;100.00;102833.75;4994203;28;20121;-78
2022/04/29 04:32:15;;;;;;;27.02;13.20;;;;;;;3.37;100.00;102826.66;5008992;28;20076;-79
2022/04/29 04:34:50;;;;;;;24.20;12.15;;;;;;;3.42;100.00;102822.19;5008631;28;20026;-77
2022/04/29 04:37:20;;;;;;;23.88;12.98;;;;;;;3.46;100.00;102826.38;4995424;28;20029;-77
2022/04/29 04:39:51;;;;;;;23.55;12.30;;;;;;;3.48;100.00;102833.22;4994361;28;20483;-78
2022/04/29 04:42:19;;;;;;;17.92;12.02;;;;;;;3.48;100.00;102829.75;4991588;28;20089;-77
2022/04/29 04:44:49;;;;;;;25.50;12.95;;;;;;;3.53;100.00;102840.00;5004034;28;20050;-76
2022/04/29 04:47:17;;;;;;;31.50;12.63;;;;;;;3.56;100.00;102839.88;4993349;28;20072;-78
2022/04/29 04:50:20;;;;;;;22.00;11.63;;;;;;;3.44;100.00;102826.41;5001722;28;20038;-76
2022/04/29 04:52:46;;;;;;;23.90;12.00;;;;;;;3.51;100.00;102835.72;4989883;28;20045;-76
2022/04/29 04:55:12;;;;;;;24.42;13.05;;;;;;;3.57;100.00;102839.00;4994035;28;20033;-77
2022/04/29 04:57:41;;;;;;;24.08;12.13;;;;;;;3.60;100.00;102839.75;5032343;28;20082;-77
2022/04/29 05:00:08;;;;;;;28.58;12.45;;;;;;;3.66;100.00;102841.31;5007564;28;20092;-75
2022/04/29 05:03:05;;;;;;;25.17;12.00;;;;;;;3.75;100.00;102837.53;5002738;28;20065;-80
2022/04/29 05:05:49;;;;;;;17.67;11.52;;;;;;;3.71;100.00;102834.19;5015988;28;21886;-78
2022/04/29 05:08:15;;;;;;;24.20;12.85;;;;;;;3.75;100.00;102841.00;4988623;28;20037;-77
2022/04/29 05:10:41;;;;;;;23.58;11.50;;;;;;;3.85;100.00;102834.59;5006973;28;20444;-78
2022/04/29 05:13:07;;;;;;;23.73;12.68;;;;;;;3.95;100.00;102842.06;4993285;28;20121;-81
2022/04/29 05:15:34;;;;;;;28.77;12.43;;;;;;;4.07;100.00;102839.06;4993252;28;20056;-79
2022/04/29 05:18:02;;;;;;;26.70;12.30;;;;;;;4.16;100.00;102838.72;4990550;28;20115;-79
2022/04/29 05:20:38;;;;;;;20.67;11.65;;;;;;;4.23;100.00;102836.78;5021030;28;20030;-78
2022/04/29 05:23:04;;;;;;;24.15;12.10;;;;;;;4.37;100.00;102844.94;5001551;28;20545;-80
2022/04/29 05:25:39;;;;;;;23.48;11.52;;;;;;;4.49;100.00;102841.88;5007011;28;20549;-77
2022/04/29 05:28:34;;;;;;;23.92;12.05;;;;;;;4.56;100.00;102845.13;4988161;28;20034;-79
2022/04/29 05:31:24;;;;;;;20.42;11.55;;;;;;;4.67;100.00;102842.97;5017457;28;20029;-80
2022/04/29 05:34:08;;;;;;;25.55;11.50;;;;;;;4.93;100.00;102848.94;5003037;28;20038;-79
2022/04/29 05:36:52;;;;;;;21.90;11.35;;;;;;;5.17;100.00;102851.53;4992672;28;20558;-77
2022/04/29 05:42:22;;;;;;;24.70;10.85;;;;;;;5.40;100.00;102853.22;4995523;28;20042;-77
2022/04/29 05:44:49;;;;;;;16.55;10.70;;;;;;;5.47;100.00;102852.91;5011401;28;20040;-76
2022/04/29 05:47:16;;;;;;;20.88;10.10;;;;;;;5.56;100.00;102858.66;4998796;28;20033;-77
2022/04/29 05:49:44;;;;;;;22.42;10.55;;;;;;;5.53;100.00;102845.75;4989148;28;20042;-75
2022/04/29 05:52:10;;;;;;;18.88;9.45;;;;;;;5.59;100.00;102848.94;4988007;28;20040;-77
2022/04/29 05:54:40;;;;;;;17.55;10.15;;;;;;;5.60;100.00;102850.66;5005027;28;20042;-76
2022/04/29 05:57:06;;;;;;;20.42;9.77;;;;;;;5.77;100.00;102862.16;4990182;28;20442;-76
2022/04/29 05:59:33;;;;;;;19.15;9.35;;;;;;;5.87;100.00;102850.41;5032025;28;20038;-78
2022/04/29 06:02:03;;;;;;;21.23;9.30;;;;;;;5.85;100.00;102860.06;4990134;28;20466;-78
2022/04/29 06:04:45;;;;;;;17.60;8.90;;;;;;;5.92;100.00;102850.25;5013880;28;20081;-78
2022/04/29 06:07:12;;;;;;;21.00;9.95;;;;;;;5.80;100.00;102852.44;4994519;28;20030;-76
2022/04/29 06:09:39;;;;;;;16.92;10.23;;;;;;;5.80;100.00;102856.78;5009020;28;20031;-77
2022/04/29 06:12:05;;;;;;;20.40;9.77;;;;;;;5.72;100.00;102858.88;4990880;28;20506;-78
2022/04/29 06:14:35;;;;;;;23.67;9.60;;;;;;;5.71;100.00;102857.16;5006676;28;20033;-77
2022/04/29 06:17:21;;;;;;;18.50;9.40;;;;;;;5.79;100.00;102861.16;4997381;28;20072;-76
2022/04/29 06:20:25;;;;;;;20.25;8.70;;;;;;;5.97;100.00;102856.13;5001428;28;20041;-77
2022/04/29 06:23:29;;;;;;;16.58;8.90;;;;;;;6.13;100.00;102851.97;4926167;29;20032;-76
2022/04/29 06:25:56;;;;;;;15.68;8.60;;;;;;;6.32;100.00;102852.00;4908993;29;20119;-77
2022/04/29 06:28:24;;;;;;;20.48;9.40;;;;;;;6.34;100.00;102838.91;4962300;28;20108;-79
2022/04/29 06:30:51;;;;;;;20.48;8.75;;;;;;;6.58;100.00;102843.03;5007375;28;20057;-76
2022/04/29 06:33:44;;;;;;;18.15;8.27;;;;;;;6.77;100.00;102857.84;5010365;28;20054;-77
2022/04/29 06:36:14;;;;;;;19.70;8.77;;;;;;;7.13;100.00;102867.50;4993033;28;20402;-77
2022/04/29 06:38:43;;;;;;;16.90;9.00;;;;;;;7.32;100.00;102857.88;5003391;28;20057;-75
2022/04/29 06:41:49;;;;;;;21.17;8.75;;;;;;;7.49;100.00;102864.06;4932203;29;20039;-77
2022/04/29 06:44:40;;;;;;;13.35;7.97;;;;;;;7.49;100.00;102864.06;4939817;28;20478;-75
2022/04/29 06:47:32;;;;;;;19.63;7.57;;;;;;;7.71;100.00;102861.25;4989432;28;20120;-77
2022/04/29 06:50:31;;;;;;;11.93;7.65;;;;;;;7.86;100.00;102863.09;4981676;28;20384;-76
2022/04/29 06:53:16;;;;;;;18.02;7.70;;;;;;;7.88;100.00;102873.47;5004246;28;20034;-76
2022/04/29 06:55:47;;;;;;;14.55;7.22;;;;;;;7.82;99.72;102865.91;4987542;28;20399;-75
2022/04/29 06:58:14;;;;;;;17.65;7.45;;;;;;;7.74;100.00;102871.53;4987397;28;20046;-76
2022/04/29 07:00:42;;;;;;;15.35;7.53;;;;;;;7.78;100.00;102875.69;5012029;28;20042;-76
2022/04/29 07:03:08;;;;;;;18.55;7.38;;;;;;;7.84;100.00;102878.00;4969963;28;20484;-75
2022/04/29 07:05:41;;;;;;;19.30;7.28;;;;;;;7.76;100.00;102880.13;5036787;28;20033;-74
2022/04/29 07:08:10;;;;;;;19.83;7.40;;;;;;;7.69;100.00;102866.53;4989516;28;20495;-76
2022/04/29 07:10:56;;;;;;;22.30;7.57;;;;;;;7.70;100.00;102859.53;5002465;28;20033;-76
2022/04/29 07:13:31;;;;;;;21.65;7.93;;;;;;;7.93;100.00;102868.84;4996453;28;20130;-75
2022/04/29 07:15:57;;;;;;;16.00;7.03;;;;;;;8.19;98.60;102870.13;5000133;28;20116;-77
2022/04/29 07:18:46;;;;;;;19.85;7.68;;;;;;;8.29;98.22;102863.53;5002153;28;20125;-76
2022/04/29 07:21:14;;;;;;;19.38;7.38;;;;;;;8.51;96.22;102867.66;4987980;28;20049;-78
2022/04/29 07:23:40;;;;;;;13.00;6.28;;;;;;;8.44;95.58;102871.50;5001382;28;20046;-77
2022/04/29 07:26:06;;;;;;;13.05;6.90;;;;;;;8.50;94.98;102864.19;5001919;28;20042;-77
2022/04/29 07:28:33;;;;;;;18.52;6.75;;;;;;;8.76;93.80;102856.72;5016813;28;20151;-75
2022/04/29 07:30:59;;;;;;;11.57;6.05;;;;;;;8.96;93.05;102858.25;5002351;28;20097;-75
2022/04/29 07:33:54;;;;;;;21.83;6.60;;;;;;;9.27;92.51;102848.72;5019484;28;20038;-77
2022/04/29 07:42:12;;;;;;;14.55;6.38;;;;;;;9.44;89.92;102856.44;5033385;28;20533;-76
2022/04/29 07:44:38;;;;;;;15.00;7.05;;;;;;;9.45;88.53;102862.53;4998097;28;20041;-78
2022/04/29 07:47:07;;;;;;;18.05;6.95;;;;;;;9.62;89.63;102872.03;5005914;28;20071;-77
2022/04/29 07:49:49;;;;;;;19.00;7.00;;;;;;;9.65;89.34;102864.84;4999524;28;20026;-78
2022/04/29 07:52:18;;;;;;;12.63;6.63;;;;;;;9.40;88.99;102861.94;5018257;28;20291;-79
2022/04/29 07:54:46;;;;;;;18.23;6.03;;;;;;;9.57;87.00;102856.59;5013632;28;20149;-77
2022/04/29 07:57:12;;;;;;;16.45;5.35;;;;;;;9.68;85.71;102867.31;4987472;28;20119;-78
2022/04/29 07:59:37;;;;;;;18.08;5.57;;;;;;;9.87;83.06;102858.34;5003139;28;20488;-76
2022/04/29 08:02:15;;;;;;;9.82;5.30;;;;;;;10.27;81.47;102858.63;4990194;28;21556;-76
2022/04/29 08:04:41;;;;;;;18.48;5.93;;;;;;;10.50;80.78;102862.47;5016421;28;20046;-77
2022/04/29 08:07:07;;;;;;;10.75;5.20;;;;;;;10.75;78.79;102861.78;5013418;28;20108;-76
2022/04/29 08:09:34;;;;;;;14.77;5.25;;;;;;;10.66;79.06;102852.72;5038970;28;20113;-77
2022/04/29 08:12:00;;;;;;;16.38;4.82;;;;;;;10.56;76.71;102843.72;5019548;28;20030;-77
2022/04/29 08:14:28;;;;;;;15.15;5.55;;;;;;;10.77;77.09;102861.72;5001317;28;20038;-78
2022/04/29 08:17:12;;;;;;;9.15;5.47;;;;;;;11.20;76.67;102867.69;5005833;28;20144;-76
2022/04/29 08:19:48;;;;;;;12.13;5.00;;;;;;;11.34;74.54;102858.09;5035194;28;20486;-76
2022/04/29 08:22:39;;;;;;;12.55;4.95;;;;;;;11.49;73.34;102863.19;5016806;28;20076;-76
2022/04/29 08:25:06;;;;;;;17.45;4.80;;;;;;;11.84;72.65;102865.25;5005164;28;20443;-78
2022/04/29 08:27:31;;;;;;;15.55;4.80;;;;;;;12.08;72.94;102860.16;4993280;28;20038;-78
2022/04/29 08:29:58;;;;;;;11.60;4.07;;;;;;;12.17;70.28;102849.97;4991951;28;20057;-78
2022/04/29 08:32:25;;;;;;;10.57;3.47;;;;;;;11.96;70.69;102854.88;5022465;28;20034;-78
2022/04/29 08:34:52;;;;;;;12.43;3.97;;;;;;;11.62;70.81;102849.22;5039527;28;20036;-78
2022/04/29 08:37:18;;;;;;;12.25;3.35;;;;;;;11.37;71.84;102852.63;5006967;28;20038;-78
2022/04/29 08:39:46;;;;;;;9.48;3.30;;;;;;;11.05;72.09;102845.06;5017995;28;20129;-78
2022/04/29 08:42:14;;;;;;;11.27;3.33;;;;;;;10.81;71.83;102848.31;4992333;28;20057;-78
2022/04/29 08:44:41;;;;;;;7.63;3.35;;;;;;;10.64;72.31;102836.25;5017262;28;20033;-77
2022/04/29 08:47:46;;;;;;;11.13;3.55;;;;;;;11.03;73.04;102858.28;5008175;28;20045;-81
2022/04/29 08:50:19;;;;;;;15.73;4.13;;;;;;;11.11;74.01;102857.78;4992143;28;20176;-78
2022/04/29 08:52:45;;;;;;;12.60;3.35;;;;;;;10.97;74.00;102856.03;4989458;28;20049;-79
2022/04/29 09:00:44;;;;;;;14.32;3.50;;;;;;;10.49;75.20;102851.16;5003419;28;20048;-79
2022/04/29 09:03:14;;;;;;;11.00;3.20;;;;;;;10.74;75.74;102851.38;4989198;28;20538;-79
2022/04/29 09:05:41;;;;;;;13.15;3.10;;;;;;;11.05;73.50;102851.13;5022411;28;20156;-79
2022/04/29 09:08:10;;;;;;;10.90;2.78;;;;;;;11.46;71.26;102862.56;4975335;28;20032;-80
2022/04/29 09:10:36;;;;;;;7.70;2.47;;;;;;;11.47;71.32;102848.44;5007664;28;20115;-76
2022/04/29 09:13:17;;;;;;;10.65;2.58;;;;;;;11.61;68.37;102844.94;4993814;28;20125;-78
2022/04/29 09:15:47;;;;;;;8.05;2.78;;;;;;;11.66;67.79;102850.72;5004089;28;20496;-78
2022/04/29 09:18:14;;;;;;;10.60;2.65;;;;;;;11.85;67.38;102838.03;5019017;28;20589;-79
2022/04/29 09:20:41;;;;;;;6.22;2.20;;;;;;;12.10;65.80;102836.38;4999000;28;20385;-77
2022/04/29 09:23:08;;;;;;;7.82;2.38;;;;;;;12.30;65.75;102840.28;5007504;28;20050;-78
2022/04/29 09:25:59;;;;;;;11.50;2.35;;;;;;;12.60;64.57;102839.06;5003930;28;20125;-79
2022/04/29 09:28:46;;;;;;;7.45;1.88;;;;;;;12.81;62.61;102844.63;5006446;28;20030;-78
2022/04/29 09:31:16;;;;;;;13.55;2.30;;;;;;;12.83;60.99;102843.53;5020067;28;20107;-78
2022/04/29 09:34:16;;;;;;;10.35;2.22;;;;;;;12.65;59.33;102840.41;5007294;28;20068;-77
2022/04/29 09:36:45;;;;;;;11.00;2.13;;;;;;;12.55;60.91;102843.81;5031759;28;20053;-79
2022/04/29 09:41:58;;;;;;;7.68;2.33;;;;;;;13.19;60.51;102857.63;5017120;28;20061;-78
2022/04/29 09:44:35;;;;;;;7.68;2.05;;;;;;;13.41;56.26;102856.94;5019672;28;20536;-82
2022/04/29 09:47:11;;;;;;;7.40;1.63;;;;;;;13.21;57.52;102847.00;5001185;28;20491;-79
2022/04/29 09:49:39;;;;;;;10.93;2.50;;;;;;;13.01;57.65;102843.16;5024403;28;20065;-80
2022/04/29 09:52:05;;;;;;;7.82;1.95;;;;;;;12.82;56.78;102841.84;5022957;28;20038;-80
2022/04/29 09:54:37;;;;;;;14.75;2.30;;;;;;;12.70;56.79;102837.47;5011461;28;20053;-81
2022/04/29 09:57:07;;;;;;;8.38;1.95;;;;;;;12.93;57.81;102838.44;5001330;28;20034;-78
2022/04/29 09:59:35;;;;;;;4.78;1.80;;;;;;;12.93;55.52;102837.63;5007020;28;20037;-76
2022/04/29 10:02:02;;;;;;;6.72;2.13;;;;;;;12.89;55.77;102834.34;5005418;28;20097;-80
2022/04/29 10:04:34;;;;;;;5.57;1.90;;;;;;;13.23;56.10;102840.63;5002917;28;20030;-80
2022/04/29 10:07:03;;;;;;;8.65;2.17;;;;;;;13.24;53.02;102829.16;4994719;28;20511;-81
2022/04/29 10:09:34;;;;;;;9.32;1.88;;;;;;;12.84;56.23;102836.47;5024901;28;20551;-80
2022/04/29 10:12:04;;;;;;;5.60;1.30;;;;;;;12.92;53.28;102820.97;5007048;28;20034;-82
2022/04/29 10:14:37;;;;;;;7.00;1.70;;;;;;;12.90;56.90;102833.38;4995577;28;20511;-81
2022/04/29 10:23:05;;;;;;;3.78;1.50;;;;;;;13.84;50.07;102837.03;5002116;28;20034;-76
2022/04/29 10:25:33;;;;;;;8.20;1.52;;;;;;;13.96;50.66;102830.84;5040466;28;20219;-80
2022/04/29 10:28:00;;;;;;;4.93;1.58;;;;;;;13.56;49.17;102831.22;4993483;28;20029;-77
2022/04/29 10:30:27;;;;;;;7.88;1.80;;;;;;;13.65;50.68;102842.03;5016180;28;20034;-81
2022/04/29 10:33:10;;;;;;;8.20;2.13;;;;;;;13.53;51.58;102839.34;5005711;28;20387;-80
2022/04/29 10:35:38;;;;;;;6.20;1.52;;;;;;;13.81;51.41;102838.13;4986286;28;20038;-79
2022/04/29 10:38:27;;;;;;;8.40;2.20;;;;;;;13.67;53.88;102833.03;4987224;28;20041;-81
2022/04/29 10:41:12;;;;;;;5.90;2.30;;;;;;;14.11;54.58;102836.72;4992376;28;20038;-78
2022/04/29 10:44:04;;;;;;;7.47;2.10;;;;;;;14.34;53.80;102831.47;5030934;28;20667;-80
2022/04/29 10:46:39;;;;;;;7.88;2.28;;;;;;;13.99;54.55;102830.59;5030415;28;20038;-78
2022/04/29 10:49:30;;;;;;;7.75;2.35;;;;;;;14.20;56.63;102829.88;5023814;28;20037;-80
2022/04/29 10:52:27;;;;;;;7.97;2.42;;;;;;;14.35;55.35;102830.47;5023536;28;20030;-82
2022/04/29 10:55:06;;;;;;;6.50;2.38;;;;;;;13.89;52.53;102826.16;5023932;28;20030;-82
2022/04/29 10:57:37;;;;;;;5.25;2.33;;;;;;;14.06;56.04;102822.22;5015579;28;20048;-79
2022/04/29 11:00:11;;;;;;;4.63;1.90;;;;;;;14.37;55.80;102831.19;5007085;28;20570;-80
2022/04/29 11:02:40;;;;;;;7.65;2.25;;;;;;;14.40;53.40;102823.06;5015129;28;20069;-79
2022/04/29 11:05:09;;;;;;;7.20;2.17;;;;;;;14.48;53.18;102833.00;4991319;28;20072;-77
2022/04/29 11:07:36;;;;;;;7.05;1.73;;;;;;;14.56;52.02;102812.97;5031777;28;20108;-78
2022/04/29 11:10:07;;;;;;;9.60;2.42;;;;;;;14.62;51.23;102814.31;4997568;28;20041;-78
2022/04/29 11:12:40;;;;;;;7.95;2.00;;;;;;;14.49;52.56;102817.03;5022935;28;20156;-77
2022/04/29 11:15:41;;;;;;;5.82;2.50;;;;;;;14.53;51.12;102801.81;4976127;28;20152;-79
2022/04/29 11:18:23;;;;;;;9.07;2.22;;;;;;;14.95;50.63;102810.72;5006849;28;20028;-78
2022/04/29 11:20:56;;;;;;;9.43;1.95;;;;;;;14.77;48.77;102802.50;5003584;28;20084;-79
2022/04/29 11:26:10;;;;;;;6.72;2.25;;;;;;;15.24;48.82;102802.22;5008625;28;19913;-76
2022/04/29 11:28:40;;;;;;;8.18;2.00;;;;;;;15.09;49.46;102796.41;5038163;28;20495;-75
2022/04/29 11:31:39;;;;;;;4.13;1.83;;;;;;;15.26;49.05;102797.66;4966929;28;20049;-78
2022/04/29 11:34:15;;;;;;;4.72;2.15;;;;;;;15.20;47.03;102800.81;4986078;28;20038;-76
2022/04/29 11:36:43;;;;;;;10.40;2.13;;;;;;;15.25;50.53;102792.50;5003204;28;20053;-77
2022/04/29 11:39:17;;;;;;;7.97;1.73;;;;;;;15.45;49.72;102789.03;5023936;28;20030;-78
2022/04/29 11:41:57;;;;;;;7.68;1.60;;;;;;;15.28;49.83;102790.44;5005557;28;20038;-78
2022/04/29 11:44:34;;;;;;;5.90;2.28;;;;;;;15.21;49.79;102791.91;4991638;28;20030;-80
2022/04/29 11:47:01;;;;;;;7.30;2.30;;;;;;;15.31;48.15;102789.31;5020560;28;20072;-76
2022/04/29 11:49:34;;;;;;;8.95;2.05;;;;;;;15.14;48.15;102781.00;5020100;28;20031;-78
2022/04/29 11:52:31;;;;;;;9.60;2.45;;;;;;;15.47;50.01;102784.44;5004524;28;20030;-79
2022/04/29 11:55:03;;;;;;;7.00;2.10;;;;;;;15.60;46.73;102794.00;4983054;28;20038;-77
2022/04/29 11:57:32;;;;;;;8.13;2.10;;;;;;;15.37;48.20;102783.53;4996511;28;20041;-79
2022/04/29 11:59:58;;;;;;;4.72;2.08;;;;;;;15.44;48.20;102776.75;5024141;28;20092;-77
2022/04/29 12:02:25;;;;;;;10.43;2.20;;;;;;;15.22;48.46;102774.22;5006651;28;20036;-78
2022/04/29 12:05:04;;;;;;;7.32;1.83;;;;;;;15.33;50.67;102777.69;5038973;28;20030;-79